Time;durP1;ratioP1;P1;durP2;ratioP2;P2;SDS_P1;SDS_P2;PMS_P1;PMS_P2;Temp;Humidity;BMP_temperature;BMP_pressure;BME280_temperature;BME280_humidity;BME280_pressure;Samples;Min_cycle;Max_cycle;Signal;HPM_P1;HPM_P2
2022/12/20 00:00:09;;;;;;;;;;;;;;;8.42;69.88;101245.97;4996220;28;19918;-65
2022/12/20 00:02:34;;;;;;;;;;;;;;;8.42;69.93;101253.22;5016601;28;19921;-65
2022/12/20 00:04:59;;;;;;;;;;;;;;;8.41;69.75;101252.38;5017560;28;20262;-65
2022/12/20 00:07:24;;;;;;;;;;;;;;;8.42;69.80;101258.59;5017932;28;19918;-65
2022/12/20 00:09:50;;;;;;;;;;;;;;;8.42;69.86;101250.53;5017412;28;19922;-65
2022/12/20 00:12:16;;;;;;;;;;;;;;;8.42;69.83;101247.84;5017357;28;19968;-66
2022/12/20 00:14:41;;;;;;;;;;;;;;;8.41;69.97;101255.06;5017319;28;19925;-66
2022/12/20 00:17:06;;;;;;;;;;;;;;;8.42;69.71;101245.13;5017313;28;19918;-65
2022/12/20 00:19:31;;;;;;;;;;;;;;;8.43;70.09;101241.41;5017181;28;19978;-64
2022/12/20 00:21:57;;;;;;;;;;;;;;;8.44;69.90;101237.66;5017195;28;19918;-64
2022/12/20 00:24:22;;;;;;;;;;;;;;;8.44;70.02;101240.34;5015898;28;19917;-65
2022/12/20 00:26:47;;;;;;;;;;;;;;;8.44;69.90;101222.34;5016781;28;19917;-66
2022/12/20 00:29:12;;;;;;;;;;;;;;;8.44;69.79;101218.81;5017119;28;19924;-67
2022/12/20 00:31:38;;;;;;;;;;;;;;;8.45;69.80;101221.28;5015595;28;20379;-66
2022/12/20 00:34:04;;;;;;;;;;;;;;;8.47;69.74;101228.31;5017263;28;19979;-66
2022/12/20 00:36:30;;;;;;;;;;;;;;;8.45;69.99;101232.06;5017324;28;19932;-66
2022/12/20 00:38:56;;;;;;;;;;;;;;;8.47;69.86;101225.63;5016796;28;19948;-67
2022/12/20 00:41:26;;;;;;;;;;;;;;;8.45;70.07;101223.97;5016990;28;20016;-66
2022/12/20 00:43:52;;;;;;;;;;;;;;;8.45;69.98;101213.22;5017697;28;19924;-66
2022/12/20 00:46:18;;;;;;;;;;;;;;;8.47;69.94;101212.16;5017175;28;19913;-69
2022/12/20 00:48:44;;;;;;;;;;;;;;;8.47;69.95;101215.69;5016656;28;19987;-66
2022/12/20 00:51:14;;;;;;;;;;;;;;;8.47;70.16;101218.41;5016479;28;20299;-66
2022/12/20 00:53:39;;;;;;;;;;;;;;;8.48;70.17;101214.66;5015047;28;19921;-67
2022/12/20 00:56:05;;;;;;;;;;;;;;;8.48;70.26;101227.28;5016524;28;19917;-66
2022/12/20 00:58:31;;;;;;;;;;;;;;;8.48;70.00;101208.44;5016779;28;19925;-65
2022/12/20 01:00:57;;;;;;;;;;;;;;;8.49;70.15;101216.28;5016482;28;19913;-65
2022/12/20 01:03:22;;;;;;;;;;;;;;;8.50;70.19;101219.81;5016155;28;20387;-65
2022/12/20 01:05:55;;;;;;;;;;;;;;;8.50;70.07;101220.66;5016054;28;19979;-65
2022/12/20 01:08:20;;;;;;;;;;;;;;;8.49;70.29;101232.44;5015207;28;19914;-69
2022/12/20 01:10:46;;;;;;;;;;;;;;;8.51;70.40;101222.28;5015438;28;19917;-65
2022/12/20 01:13:11;;;;;;;;;;;;;;;8.52;70.00;101215.88;5016176;28;19917;-65
2022/12/20 01:15:36;;;;;;;;;;;;;;;8.53;70.07;101227.47;5016233;28;20384;-66
2022/12/20 01:18:02;;;;;;;;;;;;;;;8.53;69.96;101220.19;5016126;28;20353;-65
2022/12/20 01:20:27;;;;;;;;;;;;;;;8.54;70.20;101218.31;5016107;28;20395;-66
2022/12/20 01:22:52;;;;;;;;;;;;;;;8.53;70.04;101222.91;5015015;28;19969;-65
2022/12/20 01:25:17;;;;;;;;;;;;;;;8.55;70.25;101220.00;5015815;28;19917;-66
2022/12/20 01:27:43;;;;;;;;;;;;;;;8.55;70.28;101214.63;5015950;28;20388;-65
2022/12/20 01:30:08;;;;;;;;;;;;;;;8.55;70.12;101201.97;5015937;28;19924;-65
2022/12/20 01:32:33;;;;;;;;;;;;;;;8.56;70.09;101198.22;5015832;28;19918;-65
2022/12/20 01:34:59;;;;;;;;;;;;;;;8.57;70.26;101191.00;5015888;28;20431;-65
2022/12/20 01:37:24;;;;;;;;;;;;;;;8.57;70.20;101191.00;5015839;28;19940;-65
2022/12/20 01:39:49;;;;;;;;;;;;;;;8.57;70.35;101186.41;5014150;28;19924;-65
2022/12/20 01:42:15;;;;;;;;;;;;;;;8.58;70.06;101185.38;5015967;28;20004;-65
2022/12/20 01:44:40;;;;;;;;;;;;;;;8.59;70.07;101183.50;5015640;28;20370;-65
2022/12/20 01:47:05;;;;;;;;;;;;;;;8.59;70.34;101178.09;5015697;28;19914;-65
2022/12/20 01:49:39;;;;;;;;;;;;;;;8.60;70.20;101185.97;5015491;28;20010;-65
2022/12/20 01:52:23;;;;;;;;;;;;;;;8.61;70.27;101184.94;5015364;28;19914;-65
2022/12/20 01:54:54;;;;;;;;;;;;;;;8.61;70.37;101176.84;5015761;28;19913;-65
2022/12/20 01:57:41;;;;;;;;;;;;;;;8.62;70.33;101169.63;5015838;28;19915;-64
2022/12/20 02:00:08;;;;;;;;;;;;;;;8.63;70.35;101180.16;5015385;28;19913;-65
2022/12/20 02:02:34;;;;;;;;;;;;;;;8.64;70.16;101170.19;5015236;28;20377;-64
2022/12/20 02:04:59;;;;;;;;;;;;;;;8.63;70.17;101164.00;5015371;28;19976;-64
2022/12/20 02:07:26;;;;;;;;;;;;;;;8.65;70.21;101166.47;5015271;28;19953;-69
2022/12/20 02:09:52;;;;;;;;;;;;;;;8.66;70.30;101166.25;5015088;28;19964;-64
2022/12/20 02:12:24;;;;;;;;;;;;;;;8.66;70.13;101154.66;5015195;28;20116;-64
2022/12/20 02:14:50;;;;;;;;;;;;;;;8.68;70.29;101149.06;5015743;28;19971;-64
2022/12/20 02:17:34;;;;;;;;;;;;;;;8.68;70.27;101139.09;5013884;28;19944;-65
2022/12/20 02:20:25;;;;;;;;;;;;;;;8.67;70.20;101137.47;5014811;28;19921;-65
2022/12/20 02:23:06;;;;;;;;;;;;;;;8.68;70.32;101136.41;5013059;28;19925;-65
2022/12/20 02:25:31;;;;;;;;;;;;;;;8.68;70.20;101131.03;5014661;28;19958;-65
2022/12/20 02:28:02;;;;;;;;;;;;;;;8.69;70.19;101132.66;5015446;28;19948;-65
2022/12/20 02:30:32;;;;;;;;;;;;;;;8.70;70.12;101133.50;5014717;28;19914;-69
2022/12/20 02:33:06;;;;;;;;;;;;;;;8.70;70.22;101133.50;5014043;28;20000;-64
2022/12/20 02:35:33;;;;;;;;;;;;;;;8.70;70.33;101126.25;5014715;28;19971;-65
2022/12/20 02:38:00;;;;;;;;;;;;;;;8.72;70.35;101136.78;5014484;28;19952;-64
2022/12/20 02:40:31;;;;;;;;;;;;;;;8.72;70.50;101134.09;5014588;28;19918;-64
2022/12/20 02:42:58;;;;;;;;;;;;;;;8.72;70.31;101134.94;5014670;28;19957;-65
2022/12/20 02:45:26;;;;;;;;;;;;;;;8.72;70.41;101123.31;5014383;28;20292;-64
2022/12/20 02:47:59;;;;;;;;;;;;;;;8.74;70.33;101130.13;5014448;28;19923;-65
2022/12/20 02:50:28;;;;;;;;;;;;;;;8.74;70.39;101122.03;5014748;28;19913;-66
2022/12/20 02:52:53;;;;;;;;;;;;;;;8.76;70.54;101128.03;5014442;28;19913;-68
2022/12/20 02:55:22;;;;;;;;;;;;;;;8.76;70.65;101122.66;5014224;28;20023;-65
2022/12/20 02:57:51;;;;;;;;;;;;;;;8.76;70.53;101116.44;5014401;28;20003;-64
2022/12/20 03:00:17;;;;;;;;;;;;;;;8.77;70.34;101116.25;5014384;28;20015;-65
2022/12/20 03:05:27;;;;;;;;;;;;;;;8.78;70.51;101125.13;5014718;28;19963;-64
2022/12/20 03:07:53;;;;;;;;;;;;;;;8.78;70.41;101114.38;5013886;28;20012;-65
2022/12/20 03:10:19;;;;;;;;;;;;;;;8.79;70.25;101116.00;5014265;28;19985;-64
2022/12/20 03:12:44;;;;;;;;;;;;;;;8.80;70.49;101114.97;5014184;28;19920;-65
2022/12/20 03:15:09;;;;;;;;;;;;;;;8.81;70.36;101120.13;5014536;28;20034;-64
2022/12/20 03:17:35;;;;;;;;;;;;;;;8.80;70.37;101120.38;5014325;28;19921;-65
2022/12/20 03:20:00;;;;;;;;;;;;;;;8.81;70.47;101117.44;5013447;28;19987;-65
2022/12/20 03:22:26;;;;;;;;;;;;;;;8.82;70.55;101119.09;5014112;28;19913;-65
2022/12/20 03:24:51;;;;;;;;;;;;;;;8.82;70.53;101126.31;5014078;28;19924;-65
2022/12/20 03:27:17;;;;;;;;;;;;;;;8.82;70.58;101124.47;5014074;28;20246;-65
2022/12/20 03:29:43;;;;;;;;;;;;;;;8.83;70.50;101126.13;5013663;28;20328;-64
2022/12/20 03:32:08;;;;;;;;;;;;;;;8.84;70.35;101122.41;5014055;28;19922;-65
2022/12/20 03:34:34;;;;;;;;;;;;;;;8.85;70.57;101117.81;5014039;28;19928;-69
2022/12/20 03:36:59;;;;;;;;;;;;;;;8.86;70.55;101125.66;5014749;28;20301;-65
2022/12/20 03:39:24;;;;;;;;;;;;;;;8.86;70.33;101114.06;5017989;28;19928;-65
2022/12/20 03:41:49;;;;;;;;;;;;;;;8.86;70.34;101117.59;5018473;28;19917;-65
2022/12/20 03:44:14;;;;;;;;;;;;;;;8.88;70.54;101117.38;5017952;28;19925;-66
2022/12/20 03:46:40;;;;;;;;;;;;;;;8.88;70.72;101120.06;5016879;28;19918;-66
2022/12/20 03:49:05;;;;;;;;;;;;;;;8.88;70.41;101112.81;5018400;28;20345;-66
2022/12/20 03:51:30;;;;;;;;;;;;;;;8.89;70.61;101116.31;5018140;28;19917;-66
2022/12/20 03:53:56;;;;;;;;;;;;;;;8.90;70.54;101114.47;5017996;28;19918;-65
2022/12/20 03:56:21;;;;;;;;;;;;;;;8.91;70.90;101116.94;5018295;28;19922;-65
2022/12/20 03:58:46;;;;;;;;;;;;;;;8.91;70.63;101122.31;5017636;28;19917;-66
2022/12/20 04:01:16;;;;;;;;;;;;;;;8.92;70.57;101134.75;5016683;28;19928;-66
2022/12/20 04:03:41;;;;;;;;;;;;;;;8.93;70.70;101128.31;5016283;28;19913;-66
2022/12/20 04:06:06;;;;;;;;;;;;;;;8.94;70.57;101124.56;5017553;28;19996;-66
2022/12/20 04:08:32;;;;;;;;;;;;;;;8.95;70.55;101122.72;5017163;28;19921;-65
2022/12/20 04:11:15;;;;;;;;;;;;;;;8.95;70.47;101114.63;5000095;28;19917;-66
2022/12/20 04:13:50;;;;;;;;;;;;;;;8.94;70.79;101113.78;5017322;28;19986;-65
2022/12/20 04:16:17;;;;;;;;;;;;;;;8.95;70.56;101107.38;5015899;28;19959;-66
2022/12/20 04:18:42;;;;;;;;;;;;;;;8.95;71.06;101112.75;5016527;28;19917;-65
2022/12/20 04:21:08;;;;;;;;;;;;;;;8.97;70.76;101109.81;5016073;28;20375;-65
2022/12/20 04:23:34;;;;;;;;;;;;;;;8.98;70.93;101106.09;5017461;28;19921;-66
2022/12/20 04:25:59;;;;;;;;;;;;;;;8.99;70.80;101105.03;5016911;28;19921;-65
2022/12/20 04:28:25;;;;;;;;;;;;;;;8.99;70.82;101108.53;5015941;28;19918;-66
2022/12/20 04:30:50;;;;;;;;;;;;;;;9.01;70.61;101108.34;5017010;28;19924;-65
2022/12/20 04:33:15;;;;;;;;;;;;;;;9.03;70.43;101104.38;5017612;28;19968;-65
2022/12/20 04:35:40;;;;;;;;;;;;;;;9.03;70.55;101095.47;5016957;28;19921;-65
2022/12/20 04:38:06;;;;;;;;;;;;;;;9.03;70.47;101096.28;5016603;28;20031;-65
2022/12/20 04:40:31;;;;;;;;;;;;;;;9.04;70.51;101097.91;5016777;28;19932;-65
2022/12/20 04:42:56;;;;;;;;;;;;;;;9.06;70.82;101095.00;5017140;28;19926;-65
2022/12/20 04:45:21;;;;;;;;;;;;;;;9.06;70.78;101098.53;5017237;28;19922;-65
2022/12/20 04:47:47;;;;;;;;;;;;;;;9.06;70.72;101101.22;5015530;28;19996;-63
2022/12/20 04:50:12;;;;;;;;;;;;;;;9.08;70.69;101099.13;5016937;28;19917;-65
2022/12/20 04:55:21;;;;;;;;;;;;;;;9.09;70.50;101081.09;5016796;28;20016;-65
2022/12/20 04:57:47;;;;;;;;;;;;;;;9.12;70.38;101082.50;5017016;28;19960;-65
2022/12/20 05:00:14;;;;;;;;;;;;;;;9.11;70.53;101073.59;5015394;28;19983;-65
2022/12/20 05:02:40;;;;;;;;;;;;;;;9.12;70.59;101071.72;5016475;28;19953;-65
2022/12/20 05:05:05;;;;;;;;;;;;;;;9.12;70.67;101066.34;5016748;28;19963;-65
2022/12/20 05:07:31;;;;;;;;;;;;;;;9.14;70.75;101053.47;5016913;28;20242;-66
2022/12/20 05:09:56;;;;;;;;;;;;;;;9.15;70.45;101065.88;5016053;28;20289;-66
2022/12/20 05:12:21;;;;;;;;;;;;;;;9.17;70.52;101066.47;5015104;28;20019;-66
2022/12/20 05:14:46;;;;;;;;;;;;;;;9.16;70.43;101065.66;5016540;28;19917;-66
2022/12/20 05:17:11;;;;;;;;;;;;;;;9.18;70.64;101054.66;5014971;28;19921;-64
2022/12/20 05:19:37;;;;;;;;;;;;;;;9.18;70.46;101047.41;4998641;28;19917;-64
2022/12/20 05:27:30;;;;;;;;;;;;;;;9.20;70.53;101045.31;5016401;28;19971;-64
2022/12/20 05:29:56;;;;;;;;;;;;;;;9.21;70.44;101044.25;5014588;28;19917;-65
2022/12/20 05:32:21;;;;;;;;;;;;;;;9.21;70.55;101033.47;5015910;28;19913;-64
2022/12/20 05:34:46;;;;;;;;;;;;;;;9.23;70.66;101038.66;5014898;28;19925;-64
2022/12/20 05:37:11;;;;;;;;;;;;;;;9.23;70.25;101042.16;5015548;28;19956;-64
2022/12/20 05:39:37;;;;;;;;;;;;;;;9.24;70.58;101026.81;5015848;28;19918;-64
2022/12/20 05:42:02;;;;;;;;;;;;;;;9.25;70.47;101029.28;5015776;28;19921;-64
2022/12/20 05:44:27;;;;;;;;;;;;;;;9.27;70.54;101026.34;5015994;28;19913;-65
2022/12/20 05:46:52;;;;;;;;;;;;;;;9.26;70.47;101024.72;5015878;28;19924;-64
2022/12/20 05:49:18;;;;;;;;;;;;;;;9.27;70.49;101024.50;5014498;28;20349;-64
2022/12/20 05:51:43;;;;;;;;;;;;;;;9.28;70.59;101014.53;5015841;28;20021;-66
2022/12/20 05:54:08;;;;;;;;;;;;;;;9.28;70.74;101009.94;5014181;28;19988;-66
2022/12/20 05:56:33;;;;;;;;;;;;;;;9.29;70.48;101005.38;5014281;28;19922;-66
2022/12/20 05:58:59;;;;;;;;;;;;;;;9.30;70.41;100994.38;5014361;28;19939;-66
2022/12/20 06:01:24;;;;;;;;;;;;;;;9.31;70.58;100984.41;5014590;28;19925;-66
2022/12/20 06:03:49;;;;;;;;;;;;;;;9.31;70.62;100969.06;5015574;28;19999;-66
2022/12/20 06:06:15;;;;;;;;;;;;;;;9.31;70.54;100970.94;5015377;28;19917;-66
2022/12/20 06:08:41;;;;;;;;;;;;;;;9.32;70.54;100973.41;5015686;28;19917;-66
2022/12/20 06:11:06;;;;;;;;;;;;;;;9.33;70.67;100968.84;5015378;28;19975;-66
2022/12/20 06:13:31;;;;;;;;;;;;;;;9.35;70.46;100968.59;5013904;28;19922;-67
2022/12/20 06:15:56;;;;;;;;;;;;;;;9.35;70.56;100977.53;5013710;28;19917;-67
2022/12/20 06:18:22;;;;;;;;;;;;;;;9.35;70.61;100968.59;5015096;28;19966;-66
2022/12/20 06:20:51;;;;;;;;;;;;;;;9.36;70.52;100976.47;5015273;28;19924;-69
2022/12/20 06:23:17;;;;;;;;;;;;;;;9.37;70.45;100978.09;5015474;28;19917;-66
2022/12/20 06:25:42;;;;;;;;;;;;;;;9.37;70.96;100979.97;5015415;28;20284;-66
2022/12/20 06:28:08;;;;;;;;;;;;;;;9.39;70.63;100988.66;5013562;28;19925;-65
2022/12/20 06:30:33;;;;;;;;;;;;;;;9.39;70.71;100992.16;5014753;28;20371;-66
2022/12/20 06:32:59;;;;;;;;;;;;;;;9.40;70.83;100977.66;5014603;28;19917;-65
2022/12/20 06:35:24;;;;;;;;;;;;;;;9.38;70.76;100968.97;5014778;28;19917;-66
2022/12/20 06:37:49;;;;;;;;;;;;;;;9.40;70.90;100984.91;5014672;28;19917;-67
2022/12/20 06:40:15;;;;;;;;;;;;;;;9.41;70.75;100997.34;5014371;28;19921;-65
2022/12/20 06:42:40;;;;;;;;;;;;;;;9.41;70.75;100981.16;5014644;28;19944;-65
2022/12/20 06:45:05;;;;;;;;;;;;;;;9.40;70.84;100980.34;5014590;28;20016;-65
2022/12/20 06:47:31;;;;;;;;;;;;;;;9.42;70.71;100986.31;5014295;28;19913;-65
2022/12/20 06:49:56;;;;;;;;;;;;;;;9.43;70.70;100985.28;5014380;28;20346;-66
2022/12/20 06:52:22;;;;;;;;;;;;;;;9.44;70.70;100994.19;5014201;28;19992;-68
2022/12/20 06:54:47;;;;;;;;;;;;;;;9.44;70.77;100986.91;5013192;28;20337;-66
2022/12/20 06:57:13;;;;;;;;;;;;;;;9.44;70.61;100980.72;5014044;28;19921;-65
2022/12/20 06:59:38;;;;;;;;;;;;;;;9.46;70.85;100987.50;5014523;28;19913;-65
2022/12/20 07:02:03;;;;;;;;;;;;;;;9.48;70.76;100982.72;5013650;28;20324;-67
2022/12/20 07:04:28;;;;;;;;;;;;;;;9.51;70.64;100987.66;5014106;28;19917;-67
2022/12/20 07:06:54;;;;;;;;;;;;;;;9.51;70.84;100990.34;5014298;28;20003;-69
2022/12/20 07:09:19;;;;;;;;;;;;;;;9.51;70.94;100990.34;5014965;28;19933;-66
2022/12/20 07:11:44;;;;;;;;;;;;;;;9.51;70.90;100981.44;5014053;28;19925;-68
2022/12/20 07:14:09;;;;;;;;;;;;;;;9.51;70.65;100984.94;5012892;28;20011;-66
2022/12/20 07:16:35;;;;;;;;;;;;;;;9.51;70.78;100987.66;5014774;28;19971;-67
2022/12/20 07:19:00;;;;;;;;;;;;;;;9.52;70.67;100983.91;5014373;28;20363;-66
2022/12/20 07:21:26;;;;;;;;;;;;;;;9.53;70.87;100993.63;5014122;28;19921;-67
2022/12/20 07:23:51;;;;;;;;;;;;;;;9.53;70.68;100992.81;5014103;28;19964;-67
2022/12/20 07:26:16;;;;;;;;;;;;;;;9.54;70.99;100991.75;5013997;28;19967;-65
2022/12/20 07:28:41;;;;;;;;;;;;;;;9.57;70.65;100993.19;5014016;28;19925;-67
2022/12/20 07:31:07;;;;;;;;;;;;;;;9.58;70.55;101001.03;5014006;28;19917;-66
2022/12/20 07:33:32;;;;;;;;;;;;;;;9.58;70.65;100997.53;5013693;28;20380;-67
2022/12/20 07:36:05;;;;;;;;;;;;;;;9.59;70.65;100996.47;5013934;28;20376;-67
2022/12/20 07:38:30;;;;;;;;;;;;;;;9.59;70.72;100999.97;5014012;28;19967;-68
2022/12/20 07:40:56;;;;;;;;;;;;;;;9.59;70.71;101007.25;5013814;28;20012;-67
2022/12/20 07:43:21;;;;;;;;;;;;;;;9.58;70.75;101003.75;5013572;28;19917;-67
2022/12/20 07:45:46;;;;;;;;;;;;;;;9.58;70.77;101019.94;5013862;28;19917;-67
2022/12/20 07:48:12;;;;;;;;;;;;;;;9.59;70.90;101012.66;5012527;28;19921;-67
2022/12/20 07:50:39;;;;;;;;;;;;;;;9.57;70.84;101018.25;5014081;28;19923;-67
2022/12/20 07:53:05;;;;;;;;;;;;;;;9.58;71.09;101016.41;5014332;28;19936;-67
2022/12/20 07:55:30;;;;;;;;;;;;;;;9.58;70.73;101017.22;5014063;28;20361;-65
2022/12/20 07:57:57;;;;;;;;;;;;;;;9.59;70.75;101018.88;5013821;28;19913;-67
2022/12/20 08:00:23;;;;;;;;;;;;;;;9.59;70.76;101026.94;5013790;28;19917;-67
2022/12/20 08:02:53;;;;;;;;;;;;;;;9.58;70.72;101025.31;5014089;28;19920;-67
2022/12/20 08:05:19;;;;;;;;;;;;;;;9.59;70.92;101020.75;5014278;28;19913;-68
2022/12/20 08:07:45;;;;;;;;;;;;;;;9.59;71.10;101029.66;5013475;28;19976;-66
2022/12/20 08:10:12;;;;;;;;;;;;;;;9.60;70.97;101033.16;5012411;28;19917;-66
2022/12/20 08:12:38;;;;;;;;;;;;;;;9.59;71.00;101018.88;5013427;28;20358;-66
2022/12/20 08:15:03;;;;;;;;;;;;;;;9.60;70.97;101022.38;5014087;28;19924;-66
2022/12/20 08:17:29;;;;;;;;;;;;;;;9.61;70.83;101026.72;5013587;28;19918;-66
2022/12/20 08:19:56;;;;;;;;;;;;;;;9.61;70.96;101015.94;5013443;28;20012;-67
2022/12/20 08:22:21;;;;;;;;;;;;;;;9.62;70.88;101020.28;5014972;28;20024;-68
2022/12/20 08:24:47;;;;;;;;;;;;;;;9.63;71.06;101027.34;5017481;28;20359;-67
2022/12/20 08:27:12;;;;;;;;;;;;;;;9.61;70.78;101019.47;5016738;28;20431;-66
2022/12/20 08:29:37;;;;;;;;;;;;;;;9.62;70.97;101015.69;5016999;28;19917;-66
2022/12/20 08:32:03;;;;;;;;;;;;;;;9.64;70.91;101018.19;5016853;28;19952;-66
2022/12/20 08:34:28;;;;;;;;;;;;;;;9.64;70.81;101012.78;5017101;28;19921;-66
2022/12/20 08:36:54;;;;;;;;;;;;;;;9.64;70.89;101015.47;5017679;28;19949;-66
2022/12/20 08:39:19;;;;;;;;;;;;;;;9.65;70.72;101014.41;5016842;28;19923;-68
2022/12/20 08:41:44;;;;;;;;;;;;;;;9.65;70.87;101006.31;5016507;28;19988;-65
2022/12/20 08:44:10;;;;;;;;;;;;;;;9.65;70.79;101000.94;5016774;28;19929;-65
2022/12/20 08:46:36;;;;;;;;;;;;;;;9.66;70.96;100997.19;5016781;28;19914;-65
2022/12/20 08:49:01;;;;;;;;;;;;;;;9.66;70.76;100998.00;5016289;28;19914;-68
2022/12/20 08:51:27;;;;;;;;;;;;;;;9.67;71.00;100993.44;5016740;28;19913;-67
2022/12/20 08:53:53;;;;;;;;;;;;;;;9.67;70.85;100993.44;5016468;28;20008;-66
2022/12/20 08:56:18;;;;;;;;;;;;;;;9.67;70.93;100993.44;5015580;28;20369;-66
2022/12/20 08:58:44;;;;;;;;;;;;;;;9.69;70.80;100994.03;5016211;28;19918;-66
2022/12/20 09:01:11;;;;;;;;;;;;;;;9.69;70.91;100996.72;5016690;28;20000;-65
2022/12/20 09:03:36;;;;;;;;;;;;;;;9.69;70.74;100988.63;5016492;28;19913;-65
2022/12/20 09:06:07;;;;;;;;;;;;;;;9.69;70.83;100989.47;5015131;28;19983;-71
2022/12/20 09:08:38;;;;;;;;;;;;;;;9.70;71.04;100999.22;5016582;28;20368;-66
2022/12/20 09:11:04;;;;;;;;;;;;;;;9.71;70.88;101000.03;5016848;28;19914;-74
2022/12/20 09:13:29;;;;;;;;;;;;;;;9.72;71.25;100988.16;5015318;28;19913;-66
2022/12/20 09:15:54;;;;;;;;;;;;;;;9.74;70.98;100994.97;5016516;28;20349;-65
2022/12/20 09:18:20;;;;;;;;;;;;;;;9.76;71.24;100997.47;5016109;28;19918;-68
2022/12/20 09:20:45;;;;;;;;;;;;;;;9.76;71.33;101000.16;5016184;28;19921;-65
2022/12/20 09:23:11;;;;;;;;;;;;;;;9.77;71.20;100999.09;5016015;28;20016;-65
2022/12/20 09:25:36;;;;;;;;;;;;;;;9.77;71.35;100999.09;5016075;28;19913;-66
2022/12/20 09:28:02;;;;;;;;;;;;;;;9.78;71.28;101000.75;5014973;28;19943;-66
2022/12/20 09:30:27;;;;;;;;;;;;;;;9.78;71.19;100997.22;5015835;28;19983;-67
2022/12/20 09:32:53;;;;;;;;;;;;;;;9.80;71.52;100995.94;5015728;28;20355;-66
2022/12/20 09:35:18;;;;;;;;;;;;;;;9.79;71.19;100994.28;5016119;28;19924;-65
2022/12/20 09:37:43;;;;;;;;;;;;;;;9.80;71.23;100993.22;5015698;28;19924;-71
2022/12/20 09:40:13;;;;;;;;;;;;;;;9.80;71.19;100989.72;5015211;28;19928;-65
2022/12/20 09:42:38;;;;;;;;;;;;;;;9.82;71.32;100998.41;5016159;28;19913;-65
2022/12/20 09:45:08;;;;;;;;;;;;;;;9.81;71.31;100984.09;5015257;28;20265;-65
2022/12/20 09:47:34;;;;;;;;;;;;;;;9.82;71.33;101001.91;5016044;28;19920;-67
2022/12/20 09:50:01;;;;;;;;;;;;;;;9.83;71.31;100991.97;5015014;28;20389;-65
2022/12/20 09:52:38;;;;;;;;;;;;;;;9.83;71.08;100986.56;5015038;28;19964;-65
2022/12/20 09:55:13;;;;;;;;;;;;;;;9.83;71.25;100998.19;5016000;28;19928;-66
2022/12/20 09:57:47;;;;;;;;;;;;;;;9.84;71.23;100999.81;5015338;28;19920;-69
2022/12/20 10:00:14;;;;;;;;;;;;;;;9.84;71.06;100983.63;5015167;28;19924;-65
2022/12/20 10:02:39;;;;;;;;;;;;;;;9.85;71.37;100987.13;5015252;28;20008;-66
2022/12/20 10:05:05;;;;;;;;;;;;;;;9.86;71.28;100994.19;5015183;28;20050;-66
2022/12/20 10:07:40;;;;;;;;;;;;;;;9.85;71.28;100993.38;5015581;28;19917;-66
2022/12/20 10:10:24;;;;;;;;;;;;;;;9.86;71.29;100997.72;5014996;28;19913;-65
2022/12/20 10:12:50;;;;;;;;;;;;;;;9.88;71.16;100997.50;5014994;28;20392;-66
2022/12/20 10:15:30;;;;;;;;;;;;;;;9.88;71.26;100995.63;5014946;28;19913;-65
2022/12/20 10:18:04;;;;;;;;;;;;;;;9.88;71.28;100997.50;5015291;28;20008;-68
2022/12/20 10:20:29;;;;;;;;;;;;;;;9.89;71.55;100999.13;5014824;28;20393;-65
2022/12/20 10:23:00;;;;;;;;;;;;;;;9.89;71.23;100993.72;5014541;28;19913;-65
2022/12/20 10:25:30;;;;;;;;;;;;;;;9.89;71.27;100991.03;5015538;28;19983;-65
2022/12/20 10:27:56;;;;;;;;;;;;;;;9.90;71.25;100988.13;5015244;28;20233;-66
2022/12/20 10:30:23;;;;;;;;;;;;;;;9.92;71.40;100987.88;5014588;28;19913;-65
2022/12/20 10:32:52;;;;;;;;;;;;;;;9.93;71.52;100990.34;5014647;28;19975;-67
2022/12/20 10:35:23;;;;;;;;;;;;;;;9.93;71.33;100984.94;5014838;28;19913;-66
2022/12/20 10:37:55;;;;;;;;;;;;;;;9.93;71.35;100978.72;5014537;28;20380;-66
2022/12/20 10:40:29;;;;;;;;;;;;;;;9.93;71.60;100984.13;5014767;28;19952;-66
2022/12/20 10:42:55;;;;;;;;;;;;;;;9.94;71.45;100981.19;5014544;28;19925;-65
2022/12/20 10:45:26;;;;;;;;;;;;;;;9.95;71.42;100973.91;5014043;28;20272;-65
2022/12/20 10:47:57;;;;;;;;;;;;;;;9.95;71.33;100977.44;5014491;28;19917;-66
2022/12/20 10:50:23;;;;;;;;;;;;;;;9.97;71.33;100985.28;5014435;28;19960;-65
2022/12/20 10:53:21;;;;;;;;;;;;;;;9.97;71.38;100979.91;5014920;28;19913;-66
2022/12/20 10:55:46;;;;;;;;;;;;;;;9.98;71.37;100976.16;4980579;28;19980;-67
2022/12/20 10:58:28;;;;;;;;;;;;;;;9.99;71.26;100966.19;5014379;28;20036;-65
2022/12/20 11:01:04;;;;;;;;;;;;;;;10.00;71.42;100973.22;5014526;28;20361;-65
2022/12/20 11:03:29;;;;;;;;;;;;;;;10.00;71.27;100965.94;5013303;28;19996;-69
2022/12/20 11:05:55;;;;;;;;;;;;;;;10.02;71.58;100960.31;5012899;28;20408;-64
2022/12/20 11:08:21;;;;;;;;;;;;;;;10.02;71.47;100966.53;5014578;28;19959;-67
2022/12/20 11:10:46;;;;;;;;;;;;;;;10.02;71.43;100971.91;5014058;28;19915;-66
2022/12/20 11:13:25;;;;;;;;;;;;;;;10.04;71.49;100959.03;5013811;28;19967;-65
2022/12/20 11:15:55;;;;;;;;;;;;;;;10.05;71.36;100966.03;5014096;28;19920;-66
2022/12/20 11:18:31;;;;;;;;;;;;;;;10.06;71.58;100961.50;5014800;28;19913;-67
2022/12/20 11:20:59;;;;;;;;;;;;;;;10.07;71.36;100957.72;5013986;28;20301;-65
2022/12/20 11:23:31;;;;;;;;;;;;;;;10.07;71.32;100960.44;5013871;28;19920;-67
2022/12/20 11:26:05;;;;;;;;;;;;;;;10.09;71.52;100955.63;5013901;28;19921;-67
2022/12/20 11:28:42;;;;;;;;;;;;;;;10.09;71.48;100956.44;5012841;28;19963;-68
2022/12/20 11:31:17;;;;;;;;;;;;;;;10.09;71.55;100950.22;5014524;28;19913;-66
2022/12/20 11:33:57;;;;;;;;;;;;;;;10.10;71.39;100951.84;5013883;28;19914;-66
2022/12/20 11:36:26;;;;;;;;;;;;;;;10.11;71.44;100945.41;5013813;28;19936;-66
2022/12/20 11:38:57;;;;;;;;;;;;;;;10.11;71.54;100945.41;5013810;28;20392;-68
2022/12/20 11:41:37;;;;;;;;;;;;;;;10.12;71.57;100941.66;5013585;28;19984;-67
2022/12/20 11:44:05;;;;;;;;;;;;;;;10.11;71.55;100940.84;5013514;28;19917;-67
2022/12/20 11:46:31;;;;;;;;;;;;;;;10.13;71.59;100941.44;5013641;28;20019;-67
2022/12/20 11:49:11;;;;;;;;;;;;;;;10.14;71.72;100940.34;5013569;28;20004;-66
2022/12/20 11:51:47;;;;;;;;;;;;;;;10.14;71.64;100940.34;5013946;28;19920;-67
2022/12/20 11:54:24;;;;;;;;;;;;;;;10.15;71.83;100938.47;5014261;28;19913;-66
2022/12/20 11:56:51;;;;;;;;;;;;;;;10.15;71.65;100930.38;5014030;28;19913;-67
2022/12/20 11:59:26;;;;;;;;;;;;;;;10.17;71.74;100933.66;5018268;28;19913;-69
2022/12/20 12:02:09;;;;;;;;;;;;;;;10.17;71.73;100926.38;5017771;28;19968;-66
2022/12/20 12:04:41;;;;;;;;;;;;;;;10.18;71.77;100925.34;5017464;28;19914;-66
2022/12/20 12:07:10;;;;;;;;;;;;;;;10.19;71.66;100918.88;5017402;28;19913;-66
2022/12/20 12:09:37;;;;;;;;;;;;;;;10.21;71.58;100915.97;5017051;28;19913;-67
2022/12/20 12:12:32;;;;;;;;;;;;;;;10.22;71.74;100911.38;5017284;28;19917;-65
2022/12/20 12:15:00;;;;;;;;;;;;;;;10.23;71.56;100916.56;5008050;28;20384;-65
2022/12/20 12:17:31;;;;;;;;;;;;;;;10.24;71.65;100920.88;5017738;28;19920;-66
2022/12/20 12:20:01;;;;;;;;;;;;;;;10.24;71.81;100915.47;5017466;28;19914;-65
2022/12/20 12:22:31;;;;;;;;;;;;;;;10.25;71.71;100913.59;5017609;28;20373;-66
2022/12/20 12:24:59;;;;;;;;;;;;;;;10.26;71.72;100915.25;5032269;28;20070;-66
2022/12/20 12:27:25;;;;;;;;;;;;;;;10.27;71.68;100906.91;5017490;28;19913;-66
2022/12/20 12:29:53;;;;;;;;;;;;;;;10.27;71.84;100911.47;5016900;28;19917;-65
2022/12/20 12:32:18;;;;;;;;;;;;;;;10.27;71.60;100909.59;5016948;28;20012;-66
2022/12/20 12:34:49;;;;;;;;;;;;;;;10.28;71.72;100908.59;5016752;28;20008;-68
2022/12/20 12:37:15;;;;;;;;;;;;;;;10.28;71.77;100905.91;5016752;28;19921;-66
2022/12/20 12:39:57;;;;;;;;;;;;;;;10.29;71.81;100909.41;5017241;28;19913;-66
2022/12/20 12:42:41;;;;;;;;;;;;;;;10.30;71.83;100914.56;5016916;28;20396;-66
2022/12/20 12:45:14;;;;;;;;;;;;;;;10.32;71.84;100919.72;5016352;28;20015;-67
2022/12/20 12:47:48;;;;;;;;;;;;;;;10.32;71.72;100911.63;5016701;28;19913;-68
2022/12/20 12:50:36;;;;;;;;;;;;;;;10.32;71.79;100908.94;5016846;28;19964;-66
2022/12/20 12:53:07;;;;;;;;;;;;;;;10.33;71.80;100910.56;5007445;28;19913;-66
2022/12/20 12:55:38;;;;;;;;;;;;;;;10.34;71.97;100913.03;5016540;28;19919;-65
2022/12/20 12:58:21;;;;;;;;;;;;;;;10.35;71.79;100909.25;5016327;28;19965;-65